Time;durP1;ratioP1;P1;durP2;ratioP2;P2;SDS_P1;SDS_P2;PMS_P1;PMS_P2;Temp;Humidity;BMP_temperature;BMP_pressure;BME280_temperature;BME280_humidity;BME280_pressure;Samples;Min_cycle;Max_cycle;Signal;HPM_P1;HPM_P2
2021/12/25 00:02:19;;;;;;;17.20;11.82;;;;;;;-146.64;100.00;47077.47;5009997;28;20104;-78
2021/12/25 00:04:45;;;;;;;17.52;10.68;;;;;;;-146.64;100.00;45601.31;5013278;28;20420;-78
2021/12/25 00:07:10;;;;;;;19.08;10.43;;;;;;;-146.64;100.00;46197.84;5011872;28;20474;-78
2021/12/25 00:09:35;;;;;;;16.73;11.45;;;;;;;-146.64;100.00;46556.66;4991471;28;20137;-77
2021/12/25 00:12:01;;;;;;;18.08;11.50;;;;;;;-146.64;100.00;46228.63;5011404;28;20034;-77
2021/12/25 00:14:26;;;;;;;17.48;11.85;;;;;;;-146.64;100.00;46698.13;4992005;28;20039;-77
2021/12/25 00:16:53;;;;;;;17.67;11.57;;;;;;;-146.64;100.00;46552.56;4985068;28;20115;-77
2021/12/25 00:19:18;;;;;;;18.67;10.68;;;;;;;-146.64;100.00;46564.84;5010965;28;20026;-77
2021/12/25 00:21:44;;;;;;;14.07;10.38;;;;;;;-146.64;100.00;46747.34;4983306;28;20079;-77
2021/12/25 00:24:09;;;;;;;15.60;10.13;;;;;;;-146.64;100.00;46616.13;5011636;28;20037;-77
2021/12/25 00:27:00;;;;;;;20.35;10.35;;;;;;;-146.64;100.00;47319.47;4995111;28;20018;-77
2021/12/25 00:32:14;;;;;;;15.43;10.57;;;;;;;-146.64;100.00;48402.41;5011322;28;20029;-77
2021/12/25 00:34:40;;;;;;;18.58;12.07;;;;;;;-146.64;100.00;47381.00;4995269;28;20056;-77
2021/12/25 00:37:06;;;;;;;18.88;12.93;;;;;;;-146.64;100.00;47159.50;5006981;28;20030;-77
2021/12/25 00:39:32;;;;;;;18.95;13.25;;;;;;;-146.64;100.00;47376.88;4989613;28;20026;-77
2021/12/25 00:41:58;;;;;;;23.52;14.45;;;;;;;-146.64;100.00;48221.91;4991690;28;20125;-77
2021/12/25 00:44:25;;;;;;;21.40;13.82;;;;;;;-146.64;100.00;48394.22;4989737;28;20022;-77
2021/12/25 00:46:50;;;;;;;18.02;13.77;;;;;;;-146.64;100.00;48734.75;4991482;28;20125;-77
2021/12/25 00:49:16;;;;;;;23.67;14.05;;;;;;;-146.64;100.00;50035.59;5011250;28;20152;-77
2021/12/25 00:51:41;;;;;;;21.60;15.32;;;;;;;-146.64;100.00;50626.69;4999061;28;20041;-76
2021/12/25 00:54:06;;;;;;;22.02;14.88;;;;;;;-146.64;100.00;50987.94;5010269;28;20025;-75
2021/12/25 00:56:32;;;;;;;19.20;14.10;;;;;;;-146.64;100.00;50706.72;5009871;28;20041;-76
2021/12/25 00:58:57;;;;;;;28.75;16.63;;;;;;;-146.64;100.00;50821.66;5015049;28;20085;-76
2021/12/25 01:01:22;;;;;;;20.45;15.65;;;;;;;-146.64;100.00;51419.00;5009354;28;20076;-76
2021/12/25 01:03:49;;;;;;;22.42;15.27;;;;;;;-146.64;100.00;51476.50;5005042;28;20034;-76
2021/12/25 01:06:15;;;;;;;20.27;14.05;;;;;;;-146.64;100.00;49912.47;4992666;28;20128;-76
2021/12/25 01:08:40;;;;;;;23.63;14.48;;;;;;;-146.64;100.00;49920.69;4991858;28;20129;-76
2021/12/25 01:11:06;;;;;;;20.65;16.88;;;;;;;-146.64;100.00;49262.00;5009453;28;20397;-76
2021/12/25 01:13:36;;;;;;;24.92;16.65;;;;;;;-146.64;100.00;48570.63;4994025;28;20041;-76
2021/12/25 01:22:17;;;;;;;27.33;18.83;;;;;;;-146.64;100.00;49912.47;4956771;28;20122;-77
2021/12/25 01:40:07;;;;;;;30.02;19.65;;;;;;;-146.64;100.00;48632.16;5014066;28;20026;-78
2021/12/25 01:48:00;;;;;;;26.77;19.90;;;;;;;-146.64;100.00;45347.13;5008129;28;20091;-78
2021/12/25 01:50:27;;;;;;;27.85;18.67;;;;;;;-146.64;100.00;45240.53;4994178;28;20481;-78
2021/12/25 01:52:54;;;;;;;23.52;17.10;;;;;;;-146.64;100.00;45328.69;5010034;28;20196;-78
2021/12/25 01:55:23;;;;;;;27.17;17.13;;;;;;;-146.64;100.00;45072.47;5009640;28;20044;-78
2021/12/25 01:57:49;;;;;;;20.85;15.38;;;;;;;-146.64;100.00;44162.56;5010193;28;20059;-78
2021/12/25 02:00:20;;;;;;;23.25;16.92;;;;;;;-146.64;100.00;43847.00;5005755;28;20049;-76
2021/12/25 02:02:46;;;;;;;23.25;15.93;;;;;;;-146.64;100.00;44535.50;5003538;28;20029;-76
2021/12/25 02:05:12;;;;;;;21.90;16.40;;;;;;;-146.64;100.00;44654.38;5007951;28;20030;-76
2021/12/25 02:07:37;;;;;;;22.65;15.30;;;;;;;-146.64;100.00;43744.56;5002709;28;20337;-76
2021/12/25 02:10:06;;;;;;;22.15;15.63;;;;;;;-146.64;100.00;43134.03;5011726;28;20053;-77
2021/12/25 02:12:33;;;;;;;20.23;15.05;;;;;;;-146.64;100.00;43900.28;5014572;28;20136;-76
2021/12/25 02:15:04;;;;;;;21.40;14.98;;;;;;;-146.64;100.00;43933.06;4999891;28;20434;-76
2021/12/25 02:17:48;;;;;;;19.63;13.75;;;;;;;-146.64;100.00;43679.00;5018167;28;20029;-76
2021/12/25 02:20:24;;;;;;;18.27;14.18;;;;;;;-146.64;100.00;43424.94;5021560;28;20466;-77
2021/12/25 02:22:54;;;;;;;20.02;15.23;;;;;;;-146.64;100.00;42966.06;5005963;28;20061;-76
2021/12/25 02:25:21;;;;;;;17.60;13.52;;;;;;;-146.64;100.00;42986.53;5022100;28;20030;-77
2021/12/25 02:27:47;;;;;;;17.90;13.27;;;;;;;-146.64;100.00;42898.44;5017844;28;20032;-76
2021/12/25 02:30:12;;;;;;;19.67;13.90;;;;;;;-146.64;100.00;42994.72;5001100;28;20025;-76
2021/12/25 02:32:38;;;;;;;20.95;14.88;;;;;;;-146.64;100.00;43064.38;5001285;28;20029;-77
2021/12/25 02:35:03;;;;;;;18.95;13.68;;;;;;;-146.64;100.00;43195.50;5000543;28;20041;-76
2021/12/25 02:37:29;;;;;;;20.67;14.80;;;;;;;-146.64;100.00;43138.13;5018500;28;20039;-76
2021/12/25 02:39:54;;;;;;;19.45;13.63;;;;;;;-146.64;100.00;43076.69;5017885;28;20035;-76
2021/12/25 02:42:20;;;;;;;17.83;13.35;;;;;;;-146.64;100.00;42609.63;5018165;28;20021;-77
2021/12/25 02:44:46;;;;;;;20.73;13.63;;;;;;;-146.64;100.00;43027.50;5017278;28;20120;-76
2021/12/25 02:47:18;;;;;;;18.50;13.18;;;;;;;-146.64;100.00;42419.16;5018031;28;20112;-76
2021/12/25 02:49:52;;;;;;;18.30;13.23;;;;;;;-146.64;100.00;42523.59;5001731;28;20124;-76
2021/12/25 02:52:18;;;;;;;18.08;14.40;;;;;;;-146.64;100.00;42339.25;5002351;28;20388;-76
2021/12/25 02:54:43;;;;;;;18.73;14.00;;;;;;;-146.64;100.00;42642.41;5015174;28;20060;-77
2021/12/25 02:57:13;;;;;;;22.55;16.08;;;;;;;-146.64;100.00;42834.94;5035991;28;20688;-77
2021/12/25 02:59:39;;;;;;;19.40;14.32;;;;;;;-146.64;100.00;42556.38;5035590;28;20458;-78
2021/12/25 03:02:10;;;;;;;18.80;14.50;;;;;;;-146.64;100.00;42195.91;5018355;28;20047;-78
2021/12/25 03:04:37;;;;;;;19.98;14.10;;;;;;;-146.64;100.00;42593.25;5018549;28;20041;-78
2021/12/25 03:07:03;;;;;;;19.88;13.07;;;;;;;-146.64;100.00;42326.97;5019136;28;20057;-78
2021/12/25 03:09:29;;;;;;;21.85;14.32;;;;;;;-146.64;100.00;42621.91;5019329;28;20068;-78
2021/12/25 03:11:54;;;;;;;20.20;12.48;;;;;;;-146.64;100.00;42290.09;5001819;28;20025;-78
2021/12/25 03:14:36;;;;;;;17.50;11.45;;;;;;;-146.64;100.00;42314.69;5018888;28;20033;-78
2021/12/25 03:17:02;;;;;;;13.23;10.70;;;;;;;-146.64;100.00;41982.91;5003895;28;20378;-78
2021/12/25 03:19:32;;;;;;;18.65;11.73;;;;;;;-146.64;100.00;42277.81;5032368;28;20028;-78
2021/12/25 03:21:59;;;;;;;15.95;10.50;;;;;;;-146.64;100.00;42093.50;5020306;28;20089;-78
2021/12/25 03:24:26;;;;;;;14.77;10.80;;;;;;;-146.64;100.00;41868.22;4999953;28;20457;-78
2021/12/25 03:26:54;;;;;;;;;;;;;;;-146.64;100.00;41931.69;5000256;28;20545;-78
2021/12/25 03:29:20;;;;;;;14.63;10.20;;;;;;;-146.64;100.00;42099.63;5030625;28;19929;-78
2021/12/25 03:31:45;;;;;;;13.60;10.38;;;;;;;-146.64;100.00;42159.03;4998567;28;20026;-78
2021/12/25 03:34:11;;;;;;;15.50;10.85;;;;;;;-146.64;100.00;42159.03;5025622;28;20026;-78
2021/12/25 03:36:36;;;;;;;14.35;11.63;;;;;;;-146.64;100.00;42265.53;5010469;28;20104;-78
2021/12/25 03:39:02;;;;;;;14.13;10.52;;;;;;;-146.64;100.00;42464.19;5014753;28;20035;-78
2021/12/25 03:41:28;;;;;;;15.50;11.32;;;;;;;-146.64;100.00;42097.59;4998938;28;20091;-78
2021/12/25 03:43:53;;;;;;;16.10;12.68;;;;;;;-146.64;100.00;42277.81;4999234;28;20075;-78
2021/12/25 03:46:19;;;;;;;17.50;12.88;;;;;;;-146.64;100.00;42349.50;5033591;28;20117;-78
2021/12/25 03:59:12;;;;;;;18.23;13.73;;;;;;;-146.64;100.00;42912.78;5016950;28;20080;-76
2021/12/25 04:04:14;;;;;;;24.90;14.00;;;;;;;-146.64;100.00;42572.75;5015131;28;20033;-76
2021/12/25 04:06:48;;;;;;;20.80;15.05;;;;;;;-146.64;100.00;42652.66;5012268;28;20354;-77
2021/12/25 04:09:23;;;;;;;20.83;15.27;;;;;;;-146.64;100.00;42445.78;5032412;28;20045;-76
2021/12/25 04:11:49;;;;;;;24.33;14.73;;;;;;;-146.64;100.00;42343.34;5028500;28;20025;-76
2021/12/25 04:14:14;;;;;;;21.27;14.93;;;;;;;-146.64;100.00;42208.19;5009172;28;20032;-76
2021/12/25 04:16:40;;;;;;;20.65;14.27;;;;;;;-146.64;100.00;41802.69;4997037;28;20033;-76
2021/12/25 04:19:06;;;;;;;23.38;15.63;;;;;;;-146.64;100.00;41868.22;5032068;28;20029;-76
2021/12/25 04:21:31;;;;;;;24.90;17.03;;;;;;;-146.64;100.00;41728.94;5015259;28;20427;-76
2021/12/25 04:23:56;;;;;;;24.52;17.55;;;;;;;-146.64;100.00;42107.81;5013819;28;20117;-76
2021/12/25 04:26:24;;;;;;;26.63;16.27;;;;;;;-146.64;100.00;42089.41;5032663;28;20072;-76
2021/12/25 04:29:04;;;;;;;24.17;17.83;;;;;;;-146.64;100.00;42089.41;5014680;28;20029;-76
2021/12/25 04:31:58;;;;;;;25.98;18.05;;;;;;;-146.64;100.00;42197.94;5000641;28;20125;-76
2021/12/25 05:04:04;;;;;;;33.47;20.83;;;;;;;-146.64;100.00;41323.50;5016761;28;20032;-76
2021/12/25 05:06:30;;;;;;;31.88;20.73;;;;;;;-146.64;100.00;41171.97;4998129;28;20489;-76
2021/12/25 05:08:55;;;;;;;31.33;21.55;;;;;;;-146.64;100.00;41188.34;5012753;28;20041;-76
2021/12/25 05:11:22;;;;;;;28.67;19.75;;;;;;;-146.64;100.00;41323.50;5028996;28;20167;-76
2021/12/25 05:13:49;;;;;;;21.87;15.07;;;;;;;-146.64;100.00;40981.56;4987848;28;20392;-76
2021/12/25 05:16:18;;;;;;;30.63;18.52;;;;;;;-146.64;100.00;41266.16;5013266;28;20041;-76
2021/12/25 05:18:43;;;;;;;29.27;18.40;;;;;;;-146.64;100.00;40954.94;4996903;28;20040;-76
2021/12/25 05:21:09;;;;;;;27.42;18.58;;;;;;;-146.64;100.00;40840.28;4992129;28;20030;-76
2021/12/25 05:23:35;;;;;;;29.42;19.67;;;;;;;-146.64;100.00;40920.13;4997423;28;20105;-76
2021/12/25 05:26:01;;;;;;;30.90;19.27;;;;;;;-146.64;100.00;40961.09;5012178;28;20112;-76
2021/12/25 05:28:27;;;;;;;32.17;20.67;;;;;;;-146.64;100.00;40864.84;4994773;28;20185;-76
2021/12/25 05:30:54;;;;;;;29.13;20.00;;;;;;;-146.64;100.00;40999.97;4994285;28;20522;-76
2021/12/25 05:33:20;;;;;;;32.28;20.95;;;;;;;-146.64;100.00;41020.47;5008247;28;20076;-76
2021/12/25 05:35:46;;;;;;;29.95;20.02;;;;;;;-146.64;100.00;41110.56;5004340;28;20029;-76
2021/12/25 05:38:14;;;;;;;32.42;21.83;;;;;;;-146.64;100.00;40989.75;5013557;28;20059;-76
2021/12/25 05:40:41;;;;;;;33.33;20.73;;;;;;;-146.64;100.00;40997.94;5014033;28;20064;-76
2021/12/25 05:43:07;;;;;;;35.47;20.80;;;;;;;-146.64;100.00;40926.28;4999337;28;20120;-76
2021/12/25 05:45:32;;;;;;;33.72;21.73;;;;;;;-146.64;100.00;40977.47;5027675;28;20502;-76
2021/12/25 05:47:57;;;;;;;33.25;19.70;;;;;;;-146.64;100.00;40983.59;4995899;28;20500;-76
2021/12/25 05:50:23;;;;;;;33.85;21.25;;;;;;;-146.64;100.00;40914.00;5012827;28;20116;-76
2021/12/25 05:52:48;;;;;;;33.92;20.85;;;;;;;-146.64;100.00;40950.84;4996681;28;20025;-76
2021/12/25 05:55:13;;;;;;;33.17;21.40;;;;;;;-146.64;100.00;40803.44;5012402;28;20021;-76
2021/12/25 05:57:39;;;;;;;31.67;18.98;;;;;;;-146.64;100.00;40852.56;5012921;28;20033;-76
2021/12/25 06:00:06;;;;;;;31.10;18.98;;;;;;;-146.64;100.00;40848.47;4999565;28;20036;-76
2021/12/25 06:02:32;;;;;;;30.00;17.98;;;;;;;-146.64;100.00;40877.13;5012840;28;20032;-76
2021/12/25 06:04:57;;;;;;;29.10;18.08;;;;;;;-146.64;100.00;40825.94;4993912;28;20104;-76
2021/12/25 06:07:22;;;;;;;27.88;18.85;;;;;;;-146.64;100.00;40735.88;5020422;28;20060;-76
2021/12/25 06:09:48;;;;;;;26.00;17.05;;;;;;;-146.64;100.00;40676.50;5012111;28;20072;-76
2021/12/25 06:12:14;;;;;;;28.27;18.17;;;;;;;-146.64;100.00;40623.28;5016473;28;20049;-76
2021/12/25 06:14:41;;;;;;;30.55;17.95;;;;;;;-146.64;100.00;40803.44;5011675;28;20546;-76
2021/12/25 06:17:06;;;;;;;32.72;19.42;;;;;;;-146.64;100.00;40782.97;5012883;28;20033;-76
2021/12/25 06:19:32;;;;;;;33.33;19.52;;;;;;;-146.64;100.00;40848.47;5013769;28;20036;-76
2021/12/25 06:21:57;;;;;;;32.45;20.13;;;;;;;-146.64;100.00;40692.88;5031505;28;20079;-76
2021/12/25 06:24:22;;;;;;;32.90;18.50;;;;;;;-146.64;100.00;40721.53;4996564;28;20116;-76
2021/12/25 06:26:48;;;;;;;29.70;19.58;;;;;;;-146.64;100.00;40713.34;5008824;28;20064;-76
2021/12/25 06:29:19;;;;;;;27.50;19.45;;;;;;;-146.64;100.00;40782.97;5012907;28;20037;-76
2021/12/25 06:31:44;;;;;;;33.25;19.90;;;;;;;-146.64;100.00;40909.91;4995989;28;20461;-76
2021/12/25 06:34:10;;;;;;;33.33;19.88;;;;;;;-146.64;100.00;40676.50;4996538;28;20052;-76
2021/12/25 06:36:35;;;;;;;30.23;18.90;;;;;;;-146.64;100.00;40742.00;5012826;28;20030;-76
2021/12/25 06:39:01;;;;;;;28.50;18.85;;;;;;;-146.64;100.00;40725.63;5012095;28;20045;-75
2021/12/25 06:41:28;;;;;;;31.85;18.42;;;;;;;-146.64;100.00;40780.91;5013003;28;20034;-76
2021/12/25 06:43:53;;;;;;;29.70;18.75;;;;;;;-146.64;100.00;40680.59;5029011;28;20045;-76
2021/12/25 06:46:19;;;;;;;25.00;14.95;;;;;;;-146.64;100.00;40668.31;4995266;28;20149;-76
2021/12/25 06:48:44;;;;;;;22.85;16.33;;;;;;;-146.64;100.00;40572.09;4996164;28;20026;-76
2021/12/25 06:51:10;;;;;;;23.80;15.98;;;;;;;-146.64;100.00;40488.16;4999426;28;20034;-76
2021/12/25 06:53:36;;;;;;;26.23;16.67;;;;;;;-146.64;100.00;40479.97;5008093;28;20113;-76
2021/12/25 06:56:02;;;;;;;25.88;15.93;;;;;;;-146.64;100.00;40381.69;5011902;28;20053;-75
2021/12/25 06:58:27;;;;;;;26.00;15.35;;;;;;;-146.64;100.00;40402.16;5014369;28;20084;-75
2021/12/25 07:00:52;;;;;;;23.63;16.05;;;;;;;-146.64;100.00;40479.97;5016143;28;20393;-76
2021/12/25 07:03:18;;;;;;;26.23;15.75;;;;;;;-146.64;100.00;40516.81;5000391;28;20033;-76
2021/12/25 07:05:43;;;;;;;22.50;15.07;;;;;;;-146.64;100.00;40512.72;5016422;28;20052;-76
2021/12/25 07:08:08;;;;;;;21.50;13.90;;;;;;;-146.64;100.00;40369.41;5034638;28;20044;-75
2021/12/25 07:10:34;;;;;;;23.30;15.45;;;;;;;-146.64;100.00;40344.84;4998961;28;20449;-75
2021/12/25 07:12:59;;;;;;;21.92;13.70;;;;;;;-146.64;100.00;40377.59;5015837;28;20085;-75
2021/12/25 07:15:24;;;;;;;20.40;11.18;;;;;;;-146.64;100.00;40406.25;5016457;28;20037;-75
2021/12/25 07:17:50;;;;;;;20.63;12.60;;;;;;;-146.64;100.00;40430.81;5020013;28;20026;-75
2021/12/25 07:20:15;;;;;;;15.77;10.85;;;;;;;-146.64;100.00;40434.91;5001479;28;20104;-76
2021/12/25 07:22:40;;;;;;;17.42;10.55;;;;;;;-146.64;100.00;40404.22;5036124;28;20421;-76
2021/12/25 07:25:07;;;;;;;16.17;10.25;;;;;;;-146.64;100.00;40381.69;5021316;28;20025;-76
2021/12/25 07:27:32;;;;;;;15.05;10.10;;;;;;;-146.64;100.00;40338.72;5038479;28;20064;-75
2021/12/25 07:29:57;;;;;;;13.98;10.13;;;;;;;-146.64;100.00;40252.72;5009305;28;20174;-76
2021/12/25 07:32:23;;;;;;;14.60;8.77;;;;;;;-146.64;100.00;40312.09;5003187;28;20029;-76
2021/12/25 07:34:49;;;;;;;14.85;7.65;;;;;;;-146.64;100.00;40353.03;5012298;28;20037;-76
2021/12/25 07:37:15;;;;;;;10.73;7.03;;;;;;;-146.64;100.00;40271.16;5033678;28;20088;-76
2021/12/25 07:39:41;;;;;;;10.90;8.13;;;;;;;-146.64;100.00;40246.59;4995089;28;20030;-76
2021/12/25 07:42:07;;;;;;;8.95;7.03;;;;;;;-146.64;100.00;40252.72;5018698;28;21170;-76
2021/12/25 07:44:33;;;;;;;9.43;5.93;;;;;;;-146.64;100.00;40240.44;4999880;28;20076;-76
2021/12/25 07:46:59;;;;;;;6.97;5.38;;;;;;;-146.64;100.00;40238.41;5016266;28;20030;-76
2021/12/25 07:49:24;;;;;;;9.30;5.40;;;;;;;-146.64;100.00;40201.56;5001807;28;20017;-76
2021/12/25 07:51:49;;;;;;;6.35;4.78;;;;;;;-146.64;100.00;40181.09;5008411;28;20473;-76
2021/12/25 07:54:15;;;;;;;7.93;5.22;;;;;;;-146.64;100.00;40172.91;5017053;28;20029;-76
2021/12/25 07:56:40;;;;;;;8.15;5.28;;;;;;;-146.64;100.00;40222.03;5037539;28;20061;-76
2021/12/25 07:59:06;;;;;;;9.65;5.47;;;;;;;-146.64;100.00;40195.41;5033061;28;20025;-76
2021/12/25 08:01:34;;;;;;;7.53;5.05;;;;;;;-146.64;100.00;40160.63;5012979;28;20095;-76
2021/12/25 08:04:00;;;;;;;6.15;5.13;;;;;;;-146.64;100.00;40189.28;5018912;28;20044;-76
2021/12/25 08:06:25;;;;;;;10.10;6.13;;;;;;;-146.64;100.00;40162.66;4990213;28;20030;-75
2021/12/25 08:08:55;;;;;;;11.10;6.25;;;;;;;-146.64;100.00;40119.66;4992664;28;20057;-75
2021/12/25 08:11:20;;;;;;;9.45;5.40;;;;;;;-146.64;100.00;40113.53;4981674;28;20046;-75
2021/12/25 08:13:45;;;;;;;9.85;6.18;;;;;;;-146.64;100.00;40127.84;5000272;28;20030;-75
2021/12/25 08:16:10;;;;;;;8.68;6.20;;;;;;;-146.64;100.00;40127.84;5005141;28;20026;-76
2021/12/25 08:18:37;;;;;;;8.70;5.40;;;;;;;-146.64;100.00;40115.56;4998058;28;20022;-75
2021/12/25 08:21:04;;;;;;;6.70;4.82;;;;;;;-146.64;100.00;40082.81;5003930;28;20053;-75
2021/12/25 08:23:30;;;;;;;8.20;5.45;;;;;;;-146.64;100.00;40099.19;4991208;28;20393;-75
2021/12/25 08:25:56;;;;;;;8.03;5.40;;;;;;;-146.64;100.00;40070.53;5005027;28;20033;-75
2021/12/25 08:28:22;;;;;;;7.50;4.85;;;;;;;-146.64;100.00;40121.72;4998926;28;20034;-75
2021/12/25 08:30:48;;;;;;;8.00;5.10;;;;;;;-146.64;100.00;40078.72;4997853;28;20121;-75
2021/12/25 08:33:13;;;;;;;9.07;6.55;;;;;;;-146.64;100.00;40074.63;4994323;28;20077;-75
2021/12/25 08:35:38;;;;;;;7.65;5.53;;;;;;;-146.64;100.00;40013.22;4994916;28;20513;-75
2021/12/25 08:38:04;;;;;;;8.55;5.50;;;;;;;-146.64;100.00;40056.22;4981980;28;20023;-75
2021/12/25 08:40:29;;;;;;;13.30;6.28;;;;;;;-146.64;100.00;40080.78;4992222;28;20023;-75
2021/12/25 08:43:00;;;;;;;10.45;6.20;;;;;;;-146.64;100.00;40066.44;4998033;28;20105;-75
2021/12/25 08:45:41;;;;;;;8.40;5.72;;;;;;;-146.64;100.00;40070.53;4997169;28;20038;-75
2021/12/25 08:48:12;;;;;;;9.45;5.93;;;;;;;-146.64;100.00;39990.72;5016818;28;20053;-75
2021/12/25 08:50:38;;;;;;;9.93;5.95;;;;;;;-146.64;100.00;40045.97;4981433;28;20030;-75
2021/12/25 08:53:04;;;;;;;8.55;5.72;;;;;;;-146.64;100.00;40062.34;4993299;28;20110;-75
2021/12/25 08:55:29;;;;;;;9.85;5.90;;;;;;;-146.64;100.00;40078.72;4994281;28;20034;-75
2021/12/25 08:57:54;;;;;;;11.35;6.78;;;;;;;-146.64;100.00;40058.25;4982095;28;20109;-74
2021/12/25 09:00:20;;;;;;;7.25;5.20;;;;;;;-146.64;100.00;40029.59;4992790;28;20038;-75
2021/12/25 09:02:46;;;;;;;7.68;5.70;;;;;;;-146.64;100.00;39923.16;4995406;28;20026;-75
2021/12/25 09:05:12;;;;;;;9.13;6.13;;;;;;;-146.64;100.00;40070.53;4981299;28;20480;-75
2021/12/25 09:07:37;;;;;;;8.10;5.90;;;;;;;-146.64;100.00;39982.53;4981690;28;20030;-75
2021/12/25 09:10:03;;;;;;;8.25;5.90;;;;;;;-146.64;100.00;40007.09;5022829;28;20039;-74
2021/12/25 09:12:29;;;;;;;9.20;6.38;;;;;;;-146.64;100.00;40007.09;5017222;28;20424;-74
2021/12/25 09:14:54;;;;;;;10.35;6.78;;;;;;;-146.64;100.00;40035.75;5034304;28;20123;-74
2021/12/25 09:17:20;;;;;;;10.85;5.57;;;;;;;-146.64;100.00;39992.75;4999564;28;20028;-74
2021/12/25 09:19:45;;;;;;;10.90;6.97;;;;;;;-146.64;100.00;39980.47;5031469;28;20492;-75
2021/12/25 09:22:12;;;;;;;10.05;6.05;;;;;;;-146.64;100.00;39980.47;5032534;28;20037;-75
2021/12/25 09:24:38;;;;;;;10.70;6.32;;;;;;;-146.64;100.00;40000.94;5016738;28;20032;-74
2021/12/25 09:27:04;;;;;;;10.52;6.30;;;;;;;-146.64;100.00;40005.03;5016188;28;20120;-74
2021/12/25 09:29:30;;;;;;;9.27;6.15;;;;;;;-146.64;100.00;40009.13;5000612;28;20515;-74
2021/12/25 09:31:55;;;;;;;11.07;5.65;;;;;;;-146.64;100.00;40009.13;5033642;28;20120;-74
2021/12/25 09:34:21;;;;;;;8.88;5.95;;;;;;;-146.64;100.00;40007.09;5032809;28;20460;-74
2021/12/25 09:36:46;;;;;;;8.55;6.50;;;;;;;-146.64;100.00;39964.09;5015596;28;20037;-74
2021/12/25 09:39:11;;;;;;;8.57;6.72;;;;;;;-146.64;100.00;39910.88;5034260;28;20026;-75
2021/12/25 09:41:37;;;;;;;9.30;5.95;;;;;;;-146.64;100.00;39925.22;5016534;28;20481;-75
2021/12/25 09:44:04;;;;;;;12.27;6.18;;;;;;;-146.64;100.00;39906.78;5032825;28;20091;-74
2021/12/25 09:46:30;;;;;;;10.95;6.30;;;;;;;-146.64;100.00;39876.09;5011490;28;20037;-74
2021/12/25 09:48:55;;;;;;;8.23;6.43;;;;;;;-146.64;100.00;39908.84;5012499;28;20033;-74
2021/12/25 09:51:21;;;;;;;9.25;6.07;;;;;;;-146.64;100.00;39882.22;5007729;28;20034;-74
2021/12/25 09:53:57;;;;;;;11.57;5.65;;;;;;;-146.64;100.00;39886.31;5011457;28;20025;-73
2021/12/25 09:56:23;;;;;;;7.23;5.43;;;;;;;-146.64;100.00;39853.56;5015818;28;20835;-73
2021/12/25 09:58:48;;;;;;;8.45;6.05;;;;;;;-146.64;100.00;39882.22;5023340;28;20334;-73
2021/12/25 10:01:34;;;;;;;7.38;6.50;;;;;;;-146.64;100.00;39874.03;5015243;28;20368;-73
2021/12/25 10:04:00;;;;;;;8.02;5.85;;;;;;;-146.64;100.00;39851.53;5014986;28;20067;-73
2021/12/25 10:06:33;;;;;;;9.63;5.60;;;;;;;-146.64;100.00;39849.47;5016051;28;20044;-73
2021/12/25 10:09:11;;;;;;;9.70;5.78;;;;;;;-146.64;100.00;39849.47;4998063;28;20115;-73
2021/12/25 10:11:36;;;;;;;7.05;6.28;;;;;;;-146.64;100.00;39833.09;4999114;28;20079;-73
2021/12/25 10:14:01;;;;;;;9.43;6.55;;;;;;;-146.64;100.00;39839.25;5014599;28;20029;-73
2021/12/25 10:16:30;;;;;;;9.45;6.18;;;;;;;-146.64;100.00;39833.09;5018810;28;20026;-73
2021/12/25 10:19:13;;;;;;;14.63;6.50;;;;;;;-146.64;100.00;39841.28;5001029;28;20033;-73
2021/12/25 10:21:39;;;;;;;11.70;7.53;;;;;;;-146.64;100.00;39824.91;5031227;28;20032;-74
2021/12/25 10:24:16;;;;;;;9.40;6.65;;;;;;;-146.64;100.00;39849.47;4995663;28;20021;-73
2021/12/25 10:26:44;;;;;;;10.65;6.90;;;;;;;-146.64;100.00;39820.81;5024125;28;20466;-73
2021/12/25 10:29:25;;;;;;;7.45;6.57;;;;;;;-146.64;100.00;39783.97;5008801;28;20042;-73
2021/12/25 10:31:58;;;;;;;9.68;6.25;;;;;;;-146.64;100.00;39820.81;5011511;28;20034;-73
2021/12/25 10:34:26;;;;;;;7.70;6.35;;;;;;;-146.64;100.00;39771.69;5009293;28;20033;-75
2021/12/25 10:36:52;;;;;;;8.43;5.78;;;;;;;-146.64;100.00;39763.50;5010793;28;20029;-75
2021/12/25 10:39:25;;;;;;;9.63;5.57;;;;;;;-146.64;100.00;39763.50;5022654;28;20397;-75
2021/12/25 10:42:10;;;;;;;5.45;4.93;;;;;;;-146.64;100.00;39738.94;5007937;28;20128;-75
2021/12/25 10:44:37;;;;;;;8.13;6.18;;;;;;;-146.64;100.00;39775.78;5035252;28;20107;-75
2021/12/25 10:47:06;;;;;;;8.10;5.40;;;;;;;-146.64;100.00;39734.84;5009591;28;20060;-75
2021/12/25 10:49:34;;;;;;;6.22;5.38;;;;;;;-146.64;100.00;39730.75;5008756;28;20029;-75
2021/12/25 10:52:24;;;;;;;7.13;5.47;;;;;;;-146.64;100.00;39695.97;5010966;28;20033;-75
2021/12/25 10:54:54;;;;;;;6.78;5.20;;;;;;;-146.64;100.00;39730.75;5023774;28;20453;-75
2021/12/25 10:57:34;;;;;;;8.10;4.70;;;;;;;-146.64;100.00;39743.03;5009728;28;20045;-75
2021/12/25 10:59:59;;;;;;;5.72;4.55;;;;;;;-146.64;100.00;39714.38;4999516;28;20053;-75
2021/12/25 11:02:45;;;;;;;8.10;5.28;;;;;;;-146.64;100.00;39738.94;5016851;28;20072;-75
2021/12/25 11:05:19;;;;;;;7.28;4.53;;;;;;;-146.64;100.00;39751.22;5016850;28;20056;-75
2021/12/25 11:07:45;;;;;;;7.95;5.53;;;;;;;-146.64;100.00;39702.09;5033970;28;20032;-75
2021/12/25 11:10:14;;;;;;;8.05;4.53;;;;;;;-146.64;100.00;39726.66;5012990;28;20030;-75
2021/12/25 11:12:40;;;;;;;7.28;4.78;;;;;;;-146.64;100.00;39745.09;5033483;28;20039;-75
2021/12/25 11:15:21;;;;;;;6.88;3.95;;;;;;;-146.64;100.00;39738.94;5020607;28;20030;-75
2021/12/25 11:17:51;;;;;;;4.95;3.97;;;;;;;-146.64;100.00;39706.19;5016800;28;20053;-75
2021/12/25 11:20:26;;;;;;;5.35;3.83;;;;;;;-146.64;100.00;39689.81;5007817;28;20025;-74
2021/12/25 11:22:54;;;;;;;5.97;4.10;;;;;;;-146.64;100.00;39689.81;5037354;28;20562;-77
2021/12/25 11:25:25;;;;;;;7.30;3.70;;;;;;;-146.64;100.00;39675.50;5021119;28;20116;-75
2021/12/25 11:27:51;;;;;;;4.47;3.40;;;;;;;-146.64;100.00;39698.00;5004598;28;20033;-75
2021/12/25 11:30:20;;;;;;;4.97;3.75;;;;;;;-146.64;100.00;39689.81;4992502;28;20037;-74
2021/12/25 11:32:46;;;;;;;4.15;3.38;;;;;;;-146.64;100.00;39675.50;5022545;28;20176;-74
2021/12/25 11:35:13;;;;;;;5.10;3.83;;;;;;;-146.64;100.00;39698.00;5005848;28;20097;-74
2021/12/25 11:37:39;;;;;;;4.00;3.45;;;;;;;-146.64;100.00;39669.34;5040000;28;20072;-75
2021/12/25 11:40:07;;;;;;;6.38;3.17;;;;;;;-146.64;100.00;39642.75;5020042;28;20033;-75
2021/12/25 11:42:33;;;;;;;3.88;3.42;;;;;;;-146.64;100.00;39616.13;5022270;28;20033;-75
2021/12/25 11:45:10;;;;;;;8.07;3.40;;;;;;;-146.64;100.00;39630.47;5004932;28;20028;-75
2021/12/25 11:47:39;;;;;;;4.53;3.20;;;;;;;-146.64;100.00;39599.75;5039959;28;20409;-75
2021/12/25 11:50:06;;;;;;;4.50;2.80;;;;;;;-146.64;100.00;39579.28;5022645;28;20125;-75
2021/12/25 11:52:50;;;;;;;3.00;2.45;;;;;;;-146.64;100.00;39558.81;5038641;28;20035;-75
2021/12/25 11:56:19;;;;;;;6.40;3.22;;;;;;;-146.64;100.00;39620.22;5021958;28;20029;-76
2021/12/25 11:58:39;;;;;;;3.33;2.63;;;;;;;-146.64;100.00;39567.00;5023466;28;20460;-75
2021/12/25 12:01:26;;;;;;;3.70;2.42;;;;;;;-146.64;100.00;39571.09;5037589;28;20017;-75
2021/12/25 12:04:33;;;;;;;4.97;3.03;;;;;;;-146.64;100.00;39607.94;5031931;28;20090;-75
2021/12/25 12:07:02;;;;;;;2.70;2.45;;;;;;;-146.64;100.00;39571.09;5006557;28;20038;-75
2021/12/25 12:09:52;;;;;;;2.70;2.25;;;;;;;-146.64;100.00;39540.41;5033075;28;20041;-75
2021/12/25 12:12:27;;;;;;;3.20;2.47;;;;;;;-146.64;100.00;39556.78;5028523;28;20091;-75
2021/12/25 12:15:13;;;;;;;2.85;2.20;;;;;;;-146.64;100.00;39538.34;5038430;28;20025;-75
2021/12/25 12:17:39;;;;;;;2.20;1.88;;;;;;;-146.64;100.00;39534.25;5021199;28;20112;-74